Terminal Aerodrome Forecast
Issued by NWS Pocatello, ID

Home | Current Version | Previous Version | Text Only | Print | Product List | Glossary On
Versions: 1 2 3 4 5 6 7 8 9 10 11 12 13 14 15 16 17 18 19 20 21 22 23 24
315
FTUS45 KPIH 271121
TAFIDA
TAF
KIDA 271121Z 2712/2812 20008KT P6SM VCSH BKN015 OVC060
     FM271400 32008KT P6SM SCT025 BKN070
     FM271900 22015G25KT P6SM -SHRA BKN025 OVC050
     FM280300 22013KT P6SM SCT025 BKN070=

USA.gov is the U.S. government's official web portal to all federal, state and local government web resources and services.